sensor_id;sensor_type;location;lat;lon;timestamp;P1;durP1;ratioP1;P2;durP2;ratioP2
17949;SDS011;9100;48.700;9.316;2022-10-01T00:00:24;9.5;;;6.2;;
17949;SDS011;9100;48.700;9.316;2022-10-01T00:01:24;9.5;;;6.2;;
17949;SDS011;9100;48.700;9.316;2022-10-01T00:02:18;11.2;;;6.5;;
17949;SDS011;9100;48.700;9.316;2022-10-01T00:02:24;11.2;;;6.5;;
17949;SDS011;9100;48.700;9.316;2022-10-01T00:03:25;11.2;;;6.5;;
17949;SDS011;9100;48.700;9.316;2022-10-01T00:04:24;11.2;;;6.5;;
17949;SDS011;9100;48.700;9.316;2022-10-01T00:05:24;11.2;;;6.5;;
17949;SDS011;9100;48.700;9.316;2022-10-01T00:06:24;11.2;;;6.5;;
17949;SDS011;9100;48.700;9.316;2022-10-01T00:07:18;8.1;;;6.5;;
17949;SDS011;9100;48.700;9.316;2022-10-01T00:07:24;8.1;;;6.5;;
17949;SDS011;9100;48.700;9.316;2022-10-01T00:08:24;8.1;;;6.5;;
17949;SDS011;9100;48.700;9.316;2022-10-01T00:09:24;8.1;;;6.5;;
17949;SDS011;9100;48.700;9.316;2022-10-01T00:10:24;8.1;;;6.5;;
17949;SDS011;9100;48.700;9.316;2022-10-01T00:11:24;8.1;;;6.5;;
17949;SDS011;9100;48.700;9.316;2022-10-01T00:12:18;6;;;5.6;;
17949;SDS011;9100;48.700;9.316;2022-10-01T00:12:24;6;;;5.6;;
17949;SDS011;9100;48.700;9.316;2022-10-01T00:13:24;6;;;5.6;;
17949;SDS011;9100;48.700;9.316;2022-10-01T00:14:24;6;;;5.6;;
17949;SDS011;9100;48.700;9.316;2022-10-01T00:15:24;6;;;5.6;;
17949;SDS011;9100;48.700;9.316;2022-10-01T00:16:24;6;;;5.6;;
17949;SDS011;9100;48.700;9.316;2022-10-01T00:17:18;6.5;;;5.9;;
17949;SDS011;9100;48.700;9.316;2022-10-01T00:17:24;6.5;;;5.9;;
17949;SDS011;9100;48.700;9.316;2022-10-01T00:18:24;6.5;;;5.9;;
17949;SDS011;9100;48.700;9.316;2022-10-01T00:19:24;6.5;;;5.9;;
17949;SDS011;9100;48.700;9.316;2022-10-01T00:20:24;6.5;;;5.9;;
17949;SDS011;9100;48.700;9.316;2022-10-01T00:21:24;6.5;;;5.9;;
17949;SDS011;9100;48.700;9.316;2022-10-01T00:22:18;6.2;;;5.7;;
17949;SDS011;9100;48.700;9.316;2022-10-01T00:22:24;6.2;;;5.7;;
17949;SDS011;9100;48.700;9.316;2022-10-01T00:23:24;6.2;;;5.7;;
17949;SDS011;9100;48.700;9.316;2022-10-01T00:24:24;6.2;;;5.7;;
17949;SDS011;9100;48.700;9.316;2022-10-01T00:25:24;6.2;;;5.7;;
17949;SDS011;9100;48.700;9.316;2022-10-01T00:26:25;6.2;;;5.7;;
17949;SDS011;9100;48.700;9.316;2022-10-01T00:27:18;5;;;4.7;;
17949;SDS011;9100;48.700;9.316;2022-10-01T00:27:24;5;;;4.7;;
17949;SDS011;9100;48.700;9.316;2022-10-01T00:28:24;5;;;4.7;;
17949;SDS011;9100;48.700;9.316;2022-10-01T00:29:24;5;;;4.7;;
17949;SDS011;9100;48.700;9.316;2022-10-01T00:30:24;5;;;4.7;;
17949;SDS011;9100;48.700;9.316;2022-10-01T00:31:24;5;;;4.7;;
17949;SDS011;9100;48.700;9.316;2022-10-01T00:32:18;5.5;;;4.9;;
17949;SDS011;9100;48.700;9.316;2022-10-01T00:32:24;5.5;;;4.9;;
17949;SDS011;9100;48.700;9.316;2022-10-01T00:33:24;5.5;;;4.9;;
17949;SDS011;9100;48.700;9.316;2022-10-01T00:34:24;5.5;;;4.9;;
17949;SDS011;9100;48.700;9.316;2022-10-01T00:35:24;5.5;;;4.9;;
17949;SDS011;9100;48.700;9.316;2022-10-01T00:36:24;5.5;;;4.9;;
17949;SDS011;9100;48.700;9.316;2022-10-01T00:37:18;4.6;;;4.3;;
17949;SDS011;9100;48.700;9.316;2022-10-01T00:37:24;4.6;;;4.3;;
17949;SDS011;9100;48.700;9.316;2022-10-01T00:38:24;4.6;;;4.3;;
17949;SDS011;9100;48.700;9.316;2022-10-01T00:39:24;4.6;;;4.3;;
17949;SDS011;9100;48.700;9.316;2022-10-01T00:40:24;4.6;;;4.3;;
17949;SDS011;9100;48.700;9.316;2022-10-01T00:41:24;4.6;;;4.3;;
17949;SDS011;9100;48.700;9.316;2022-10-01T00:42:19;5.4;;;5;;
17949;SDS011;9100;48.700;9.316;2022-10-01T00:42:24;5.4;;;5;;
17949;SDS011;9100;48.700;9.316;2022-10-01T00:43:25;5.4;;;5;;
17949;SDS011;9100;48.700;9.316;2022-10-01T00:44:26;5.4;;;5;;
17949;SDS011;9100;48.700;9.316;2022-10-01T00:45:24;5.4;;;5;;
17949;SDS011;9100;48.700;9.316;2022-10-01T00:46:25;5.4;;;5;;
17949;SDS011;9100;48.700;9.316;2022-10-01T00:47:20;5.5;;;5;;
17949;SDS011;9100;48.700;9.316;2022-10-01T00:47:25;5.5;;;5;;
17949;SDS011;9100;48.700;9.316;2022-10-01T00:48:24;5.5;;;5;;
17949;SDS011;9100;48.700;9.316;2022-10-01T00:49:24;5.5;;;5;;
17949;SDS011;9100;48.700;9.316;2022-10-01T00:50:24;5.5;;;5;;
17949;SDS011;9100;48.700;9.316;2022-10-01T00:51:24;5.5;;;5;;
17949;SDS011;9100;48.700;9.316;2022-10-01T00:52:19;4.6;;;4.2;;
17949;SDS011;9100;48.700;9.316;2022-10-01T00:52:25;4.6;;;4.2;;
17949;SDS011;9100;48.700;9.316;2022-10-01T00:53:24;4.6;;;4.2;;
17949;SDS011;9100;48.700;9.316;2022-10-01T00:54:25;4.6;;;4.2;;
17949;SDS011;9100;48.700;9.316;2022-10-01T00:55:24;4.6;;;4.2;;
17949;SDS011;9100;48.700;9.316;2022-10-01T00:56:24;4.6;;;4.2;;
17949;SDS011;9100;48.700;9.316;2022-10-01T00:57:19;7.1;;;6.1;;
17949;SDS011;9100;48.700;9.316;2022-10-01T00:57:24;7.1;;;6.1;;
17949;SDS011;9100;48.700;9.316;2022-10-01T00:58:24;7.1;;;6.1;;
17949;SDS011;9100;48.700;9.316;2022-10-01T00:59:24;7.1;;;6.1;;
17949;SDS011;9100;48.700;9.316;2022-10-01T01:00:24;7.1;;;6.1;;
17949;SDS011;9100;48.700;9.316;2022-10-01T01:01:24;7.1;;;6.1;;
17949;SDS011;9100;48.700;9.316;2022-10-01T01:02:18;7;;;5.7;;
17949;SDS011;9100;48.700;9.316;2022-10-01T01:02:24;7;;;5.7;;
17949;SDS011;9100;48.700;9.316;2022-10-01T01:03:24;7;;;5.7;;
17949;SDS011;9100;48.700;9.316;2022-10-01T01:04:24;7;;;5.7;;
17949;SDS011;9100;48.700;9.316;2022-10-01T01:05:24;7;;;5.7;;
17949;SDS011;9100;48.700;9.316;2022-10-01T01:06:24;7;;;5.7;;
17949;SDS011;9100;48.700;9.316;2022-10-01T01:07:18;6.7;;;6.1;;
17949;SDS011;9100;48.700;9.316;2022-10-01T01:07:24;6.7;;;6.1;;
17949;SDS011;9100;48.700;9.316;2022-10-01T01:08:24;6.7;;;6.1;;
17949;SDS011;9100;48.700;9.316;2022-10-01T01:09:25;6.7;;;6.1;;
17949;SDS011;9100;48.700;9.316;2022-10-01T01:10:26;6.7;;;6.1;;
17949;SDS011;9100;48.700;9.316;2022-10-01T01:11:26;6.7;;;6.1;;
17949;SDS011;9100;48.700;9.316;2022-10-01T01:12:21;6.3;;;5.8;;
17949;SDS011;9100;48.700;9.316;2022-10-01T01:12:27;6.3;;;5.8;;
17949;SDS011;9100;48.700;9.316;2022-10-01T01:13:25;6.3;;;5.8;;
17949;SDS011;9100;48.700;9.316;2022-10-01T01:14:25;6.3;;;5.8;;
17949;SDS011;9100;48.700;9.316;2022-10-01T01:15:25;6.3;;;5.8;;
17949;SDS011;9100;48.700;9.316;2022-10-01T01:16:24;6.3;;;5.8;;
17949;SDS011;9100;48.700;9.316;2022-10-01T01:17:24;7;;;6.1;;
17949;SDS011;9100;48.700;9.316;2022-10-01T01:17:28;7;;;6.1;;
17949;SDS011;9100;48.700;9.316;2022-10-01T01:18:25;7;;;6.1;;
17949;SDS011;9100;48.700;9.316;2022-10-01T01:19:27;7;;;6.1;;
17949;SDS011;9100;48.700;9.316;2022-10-01T01:20:27;7;;;6.1;;
17949;SDS011;9100;48.700;9.316;2022-10-01T01:21:24;7;;;6.1;;
17949;SDS011;9100;48.700;9.316;2022-10-01T01:22:18;5.7;;;5.2;;
17949;SDS011;9100;48.700;9.316;2022-10-01T01:22:24;5.7;;;5.2;;
17949;SDS011;9100;48.700;9.316;2022-10-01T01:23:30;5.7;;;5.2;;
17949;SDS011;9100;48.700;9.316;2022-10-01T01:24:28;5.7;;;5.2;;
17949;SDS011;9100;48.700;9.316;2022-10-01T01:25:24;5.7;;;5.2;;
17949;SDS011;9100;48.700;9.316;2022-10-01T01:26:26;5.7;;;5.2;;
17949;SDS011;9100;48.700;9.316;2022-10-01T01:27:23;5.9;;;5.4;;
17949;SDS011;9100;48.700;9.316;2022-10-01T01:27:27;5.9;;;5.4;;
17949;SDS011;9100;48.700;9.316;2022-10-01T01:28:25;5.9;;;5.4;;
17949;SDS011;9100;48.700;9.316;2022-10-01T01:29:24;5.9;;;5.4;;
17949;SDS011;9100;48.700;9.316;2022-10-01T01:30:24;5.9;;;5.4;;
17949;SDS011;9100;48.700;9.316;2022-10-01T01:31:25;5.9;;;5.4;;
17949;SDS011;9100;48.700;9.316;2022-10-01T01:32:18;5.6;;;5.1;;
17949;SDS011;9100;48.700;9.316;2022-10-01T01:32:24;5.6;;;5.1;;
17949;SDS011;9100;48.700;9.316;2022-10-01T01:33:24;5.6;;;5.1;;
17949;SDS011;9100;48.700;9.316;2022-10-01T01:34:25;5.6;;;5.1;;
17949;SDS011;9100;48.700;9.316;2022-10-01T01:35:24;5.6;;;5.1;;
17949;SDS011;9100;48.700;9.316;2022-10-01T01:36:25;5.6;;;5.1;;
17949;SDS011;9100;48.700;9.316;2022-10-01T01:37:18;6.8;;;5.3;;
17949;SDS011;9100;48.700;9.316;2022-10-01T01:37:24;6.8;;;5.3;;
17949;SDS011;9100;48.700;9.316;2022-10-01T01:38:24;6.8;;;5.3;;
17949;SDS011;9100;48.700;9.316;2022-10-01T01:39:24;6.8;;;5.3;;
17949;SDS011;9100;48.700;9.316;2022-10-01T01:40:24;6.8;;;5.3;;
17949;SDS011;9100;48.700;9.316;2022-10-01T01:41:24;6.8;;;5.3;;
17949;SDS011;9100;48.700;9.316;2022-10-01T01:42:19;6.2;;;5.6;;
17949;SDS011;9100;48.700;9.316;2022-10-01T01:42:25;6.2;;;5.6;;
17949;SDS011;9100;48.700;9.316;2022-10-01T01:43:26;6.2;;;5.6;;
17949;SDS011;9100;48.700;9.316;2022-10-01T01:44:24;6.2;;;5.6;;
17949;SDS011;9100;48.700;9.316;2022-10-01T01:45:25;6.2;;;5.6;;
17949;SDS011;9100;48.700;9.316;2022-10-01T01:46:24;6.2;;;5.6;;
17949;SDS011;9100;48.700;9.316;2022-10-01T01:47:18;5.8;;;5.3;;
17949;SDS011;9100;48.700;9.316;2022-10-01T01:47:24;5.8;;;5.3;;
17949;SDS011;9100;48.700;9.316;2022-10-01T01:48:24;5.8;;;5.3;;
17949;SDS011;9100;48.700;9.316;2022-10-01T01:49:24;5.8;;;5.3;;
17949;SDS011;9100;48.700;9.316;2022-10-01T01:50:24;5.8;;;5.3;;
17949;SDS011;9100;48.700;9.316;2022-10-01T01:51:24;5.8;;;5.3;;
17949;SDS011;9100;48.700;9.316;2022-10-01T01:52:18;5.9;;;5.5;;
17949;SDS011;9100;48.700;9.316;2022-10-01T01:52:24;5.9;;;5.5;;
17949;SDS011;9100;48.700;9.316;2022-10-01T01:53:24;5.9;;;5.5;;
17949;SDS011;9100;48.700;9.316;2022-10-01T01:54:24;5.9;;;5.5;;
17949;SDS011;9100;48.700;9.316;2022-10-01T01:55:24;5.9;;;5.5;;
17949;SDS011;9100;48.700;9.316;2022-10-01T01:56:24;5.9;;;5.5;;
17949;SDS011;9100;48.700;9.316;2022-10-01T01:57:18;9.9;;;5;;
17949;SDS011;9100;48.700;9.316;2022-10-01T01:57:24;9.9;;;5;;
17949;SDS011;9100;48.700;9.316;2022-10-01T01:58:24;9.9;;;5;;
17949;SDS011;9100;48.700;9.316;2022-10-01T01:59:24;9.9;;;5;;
17949;SDS011;9100;48.700;9.316;2022-10-01T02:00:24;9.9;;;5;;
17949;SDS011;9100;48.700;9.316;2022-10-01T02:01:32;9.9;;;5;;
17949;SDS011;9100;48.700;9.316;2022-10-01T02:02:18;5.8;;;5.4;;
17949;SDS011;9100;48.700;9.316;2022-10-01T02:02:24;5.8;;;5.4;;
17949;SDS011;9100;48.700;9.316;2022-10-01T02:03:24;5.8;;;5.4;;
17949;SDS011;9100;48.700;9.316;2022-10-01T02:04:24;5.8;;;5.4;;
17949;SDS011;9100;48.700;9.316;2022-10-01T02:05:24;5.8;;;5.4;;
17949;SDS011;9100;48.700;9.316;2022-10-01T02:06:26;5.8;;;5.4;;
17949;SDS011;9100;48.700;9.316;2022-10-01T02:07:24;6.7;;;6;;
17949;SDS011;9100;48.700;9.316;2022-10-01T02:07:46;6.7;;;6;;
17949;SDS011;9100;48.700;9.316;2022-10-01T02:08:26;6.7;;;6;;
17949;SDS011;9100;48.700;9.316;2022-10-01T02:09:25;6.7;;;6;;
17949;SDS011;9100;48.700;9.316;2022-10-01T02:10:28;6.7;;;6;;
17949;SDS011;9100;48.700;9.316;2022-10-01T02:11:24;6.7;;;6;;
17949;SDS011;9100;48.700;9.316;2022-10-01T02:12:21;7.5;;;6.2;;
17949;SDS011;9100;48.700;9.316;2022-10-01T02:12:26;7.5;;;6.2;;
17949;SDS011;9100;48.700;9.316;2022-10-01T02:13:26;7.5;;;6.2;;
17949;SDS011;9100;48.700;9.316;2022-10-01T02:14:25;7.5;;;6.2;;
17949;SDS011;9100;48.700;9.316;2022-10-01T02:15:24;7.5;;;6.2;;
17949;SDS011;9100;48.700;9.316;2022-10-01T02:16:26;7.5;;;6.2;;
17949;SDS011;9100;48.700;9.316;2022-10-01T02:17:20;6.8;;;6.2;;
17949;SDS011;9100;48.700;9.316;2022-10-01T02:17:26;6.8;;;6.2;;
17949;SDS011;9100;48.700;9.316;2022-10-01T02:18:25;6.8;;;6.2;;
17949;SDS011;9100;48.700;9.316;2022-10-01T02:19:25;6.8;;;6.2;;
17949;SDS011;9100;48.700;9.316;2022-10-01T02:20:25;6.8;;;6.2;;
17949;SDS011;9100;48.700;9.316;2022-10-01T02:21:26;6.8;;;6.2;;
17949;SDS011;9100;48.700;9.316;2022-10-01T02:22:18;7.1;;;6.5;;
17949;SDS011;9100;48.700;9.316;2022-10-01T02:22:25;7.1;;;6.5;;
17949;SDS011;9100;48.700;9.316;2022-10-01T02:23:24;7.1;;;6.5;;
17949;SDS011;9100;48.700;9.316;2022-10-01T02:24:25;7.1;;;6.5;;
17949;SDS011;9100;48.700;9.316;2022-10-01T02:25:25;7.1;;;6.5;;
17949;SDS011;9100;48.700;9.316;2022-10-01T02:26:24;7.1;;;6.5;;
17949;SDS011;9100;48.700;9.316;2022-10-01T02:27:19;7.1;;;6.4;;
17949;SDS011;9100;48.700;9.316;2022-10-01T02:27:25;7.1;;;6.4;;
17949;SDS011;9100;48.700;9.316;2022-10-01T02:28:24;7.1;;;6.4;;
17949;SDS011;9100;48.700;9.316;2022-10-01T02:29:24;7.1;;;6.4;;
17949;SDS011;9100;48.700;9.316;2022-10-01T02:30:24;7.1;;;6.4;;
17949;SDS011;9100;48.700;9.316;2022-10-01T02:31:24;7.1;;;6.4;;
17949;SDS011;9100;48.700;9.316;2022-10-01T02:32:18;11.7;;;6.6;;
17949;SDS011;9100;48.700;9.316;2022-10-01T02:32:24;11.7;;;6.6;;
17949;SDS011;9100;48.700;9.316;2022-10-01T02:33:25;11.7;;;6.6;;
17949;SDS011;9100;48.700;9.316;2022-10-01T02:34:24;11.7;;;6.6;;
17949;SDS011;9100;48.700;9.316;2022-10-01T02:35:24;11.7;;;6.6;;
17949;SDS011;9100;48.700;9.316;2022-10-01T02:36:24;11.7;;;6.6;;
17949;SDS011;9100;48.700;9.316;2022-10-01T02:37:18;8.5;;;6.7;;
17949;SDS011;9100;48.700;9.316;2022-10-01T02:37:24;8.5;;;6.7;;
17949;SDS011;9100;48.700;9.316;2022-10-01T02:38:24;8.5;;;6.7;;
17949;SDS011;9100;48.700;9.316;2022-10-01T02:39:24;8.5;;;6.7;;
17949;SDS011;9100;48.700;9.316;2022-10-01T02:40:24;8.5;;;6.7;;
17949;SDS011;9100;48.700;9.316;2022-10-01T02:41:26;8.5;;;6.7;;
17949;SDS011;9100;48.700;9.316;2022-10-01T02:42:18;7;;;6.4;;
17949;SDS011;9100;48.700;9.316;2022-10-01T02:42:25;7;;;6.4;;
17949;SDS011;9100;48.700;9.316;2022-10-01T02:43:25;7;;;6.4;;
17949;SDS011;9100;48.700;9.316;2022-10-01T02:44:24;7;;;6.4;;
17949;SDS011;9100;48.700;9.316;2022-10-01T02:45:24;7;;;6.4;;
17949;SDS011;9100;48.700;9.316;2022-10-01T02:46:24;7;;;6.4;;
17949;SDS011;9100;48.700;9.316;2022-10-01T02:47:19;8.1;;;6.1;;
17949;SDS011;9100;48.700;9.316;2022-10-01T02:47:25;8.1;;;6.1;;
17949;SDS011;9100;48.700;9.316;2022-10-01T02:48:24;8.1;;;6.1;;
17949;SDS011;9100;48.700;9.316;2022-10-01T02:49:24;8.1;;;6.1;;
17949;SDS011;9100;48.700;9.316;2022-10-01T02:50:25;8.1;;;6.1;;
17949;SDS011;9100;48.700;9.316;2022-10-01T02:51:25;8.1;;;6.1;;
17949;SDS011;9100;48.700;9.316;2022-10-01T02:52:20;9.6;;;5.9;;
17949;SDS011;9100;48.700;9.316;2022-10-01T02:52:26;9.6;;;5.9;;
17949;SDS011;9100;48.700;9.316;2022-10-01T02:53:25;9.6;;;5.9;;
17949;SDS011;9100;48.700;9.316;2022-10-01T02:54:24;9.6;;;5.9;;
17949;SDS011;9100;48.700;9.316;2022-10-01T02:55:25;9.6;;;5.9;;
17949;SDS011;9100;48.700;9.316;2022-10-01T02:56:24;9.6;;;5.9;;
17949;SDS011;9100;48.700;9.316;2022-10-01T02:57:18;7.5;;;6.8;;
17949;SDS011;9100;48.700;9.316;2022-10-01T02:57:24;7.5;;;6.8;;
17949;SDS011;9100;48.700;9.316;2022-10-01T02:58:24;7.5;;;6.8;;
17949;SDS011;9100;48.700;9.316;2022-10-01T02:59:24;7.5;;;6.8;;
17949;SDS011;9100;48.700;9.316;2022-10-01T03:00:24;7.5;;;6.8;;
17949;SDS011;9100;48.700;9.316;2022-10-01T03:01:24;7.5;;;6.8;;
17949;SDS011;9100;48.700;9.316;2022-10-01T03:02:18;8.2;;;7.4;;
17949;SDS011;9100;48.700;9.316;2022-10-01T03:02:24;8.2;;;7.4;;
17949;SDS011;9100;48.700;9.316;2022-10-01T03:03:24;8.2;;;7.4;;
17949;SDS011;9100;48.700;9.316;2022-10-01T03:04:24;8.2;;;7.4;;
17949;SDS011;9100;48.700;9.316;2022-10-01T03:05:24;8.2;;;7.4;;
17949;SDS011;9100;48.700;9.316;2022-10-01T03:06:24;8.2;;;7.4;;
17949;SDS011;9100;48.700;9.316;2022-10-01T03:07:18;8.7;;;7;;
17949;SDS011;9100;48.700;9.316;2022-10-01T03:07:24;8.7;;;7;;
17949;SDS011;9100;48.700;9.316;2022-10-01T03:08:24;8.7;;;7;;
17949;SDS011;9100;48.700;9.316;2022-10-01T03:09:24;8.7;;;7;;
17949;SDS011;9100;48.700;9.316;2022-10-01T03:10:24;8.7;;;7;;
17949;SDS011;9100;48.700;9.316;2022-10-01T03:11:24;8.7;;;7;;
17949;SDS011;9100;48.700;9.316;2022-10-01T03:12:18;7.6;;;6.9;;
17949;SDS011;9100;48.700;9.316;2022-10-01T03:12:24;7.6;;;6.9;;
17949;SDS011;9100;48.700;9.316;2022-10-01T03:13:24;7.6;;;6.9;;
17949;SDS011;9100;48.700;9.316;2022-10-01T03:14:24;7.6;;;6.9;;
17949;SDS011;9100;48.700;9.316;2022-10-01T03:15:24;7.6;;;6.9;;
17949;SDS011;9100;48.700;9.316;2022-10-01T03:16:24;7.6;;;6.9;;
17949;SDS011;9100;48.700;9.316;2022-10-01T03:17:18;7.5;;;6.7;;
17949;SDS011;9100;48.700;9.316;2022-10-01T03:17:24;7.5;;;6.7;;
17949;SDS011;9100;48.700;9.316;2022-10-01T03:18:24;7.5;;;6.7;;
17949;SDS011;9100;48.700;9.316;2022-10-01T03:19:24;7.5;;;6.7;;
17949;SDS011;9100;48.700;9.316;2022-10-01T03:20:24;7.5;;;6.7;;
17949;SDS011;9100;48.700;9.316;2022-10-01T03:21:24;7.5;;;6.7;;
17949;SDS011;9100;48.700;9.316;2022-10-01T03:22:18;7.4;;;6.7;;
17949;SDS011;9100;48.700;9.316;2022-10-01T03:22:24;7.4;;;6.7;;
17949;SDS011;9100;48.700;9.316;2022-10-01T03:23:24;7.4;;;6.7;;
17949;SDS011;9100;48.700;9.316;2022-10-01T03:24:24;7.4;;;6.7;;
17949;SDS011;9100;48.700;9.316;2022-10-01T03:25:24;7.4;;;6.7;;
17949;SDS011;9100;48.700;9.316;2022-10-01T03:26:24;7.4;;;6.7;;
17949;SDS011;9100;48.700;9.316;2022-10-01T03:27:18;6.5;;;5.5;;
17949;SDS011;9100;48.700;9.316;2022-10-01T03:27:24;6.5;;;5.5;;
17949;SDS011;9100;48.700;9.316;2022-10-01T03:28:24;6.5;;;5.5;;
17949;SDS011;9100;48.700;9.316;2022-10-01T03:29:24;6.5;;;5.5;;
17949;SDS011;9100;48.700;9.316;2022-10-01T03:30:24;6.5;;;5.5;;
17949;SDS011;9100;48.700;9.316;2022-10-01T03:31:24;6.5;;;5.5;;
17949;SDS011;9100;48.700;9.316;2022-10-01T03:32:18;6.7;;;6.1;;
17949;SDS011;9100;48.700;9.316;2022-10-01T03:32:24;6.7;;;6.1;;
17949;SDS011;9100;48.700;9.316;2022-10-01T03:33:24;6.7;;;6.1;;
17949;SDS011;9100;48.700;9.316;2022-10-01T03:34:24;6.7;;;6.1;;
17949;SDS011;9100;48.700;9.316;2022-10-01T03:35:24;6.7;;;6.1;;
17949;SDS011;9100;48.700;9.316;2022-10-01T03:36:24;6.7;;;6.1;;
17949;SDS011;9100;48.700;9.316;2022-10-01T03:37:18;8;;;6.1;;
17949;SDS011;9100;48.700;9.316;2022-10-01T03:37:24;8;;;6.1;;
17949;SDS011;9100;48.700;9.316;2022-10-01T03:38:24;8;;;6.1;;
17949;SDS011;9100;48.700;9.316;2022-10-01T03:39:24;8;;;6.1;;
17949;SDS011;9100;48.700;9.316;2022-10-01T03:40:24;8;;;6.1;;
17949;SDS011;9100;48.700;9.316;2022-10-01T03:41:24;8;;;6.1;;
17949;SDS011;9100;48.700;9.316;2022-10-01T03:42:18;6.6;;;6;;
17949;SDS011;9100;48.700;9.316;2022-10-01T03:42:24;6.6;;;6;;
17949;SDS011;9100;48.700;9.316;2022-10-01T03:43:24;6.6;;;6;;
17949;SDS011;9100;48.700;9.316;2022-10-01T03:44:24;6.6;;;6;;
17949;SDS011;9100;48.700;9.316;2022-10-01T03:45:24;6.6;;;6;;
17949;SDS011;9100;48.700;9.316;2022-10-01T03:46:24;6.6;;;6;;
17949;SDS011;9100;48.700;9.316;2022-10-01T03:47:18;8.6;;;6.2;;
17949;SDS011;9100;48.700;9.316;2022-10-01T03:47:24;8.6;;;6.2;;
17949;SDS011;9100;48.700;9.316;2022-10-01T03:48:24;8.6;;;6.2;;
17949;SDS011;9100;48.700;9.316;2022-10-01T03:49:24;8.6;;;6.2;;
17949;SDS011;9100;48.700;9.316;2022-10-01T03:50:24;8.6;;;6.2;;
17949;SDS011;9100;48.700;9.316;2022-10-01T03:51:24;8.6;;;6.2;;
17949;SDS011;9100;48.700;9.316;2022-10-01T03:52:18;9.4;;;6.5;;
17949;SDS011;9100;48.700;9.316;2022-10-01T03:52:24;9.4;;;6.5;;
17949;SDS011;9100;48.700;9.316;2022-10-01T03:53:24;9.4;;;6.5;;
17949;SDS011;9100;48.700;9.316;2022-10-01T03:54:24;9.4;;;6.5;;
17949;SDS011;9100;48.700;9.316;2022-10-01T03:55:24;9.4;;;6.5;;
17949;SDS011;9100;48.700;9.316;2022-10-01T03:56:24;9.4;;;6.5;;
17949;SDS011;9100;48.700;9.316;2022-10-01T03:57:18;7;;;6.4;;
17949;SDS011;9100;48.700;9.316;2022-10-01T03:57:24;7;;;6.4;;
17949;SDS011;9100;48.700;9.316;2022-10-01T03:58:24;7;;;6.4;;
17949;SDS011;9100;48.700;9.316;2022-10-01T03:59:24;7;;;6.4;;
17949;SDS011;9100;48.700;9.316;2022-10-01T04:00:24;7;;;6.4;;
17949;SDS011;9100;48.700;9.316;2022-10-01T04:01:24;7;;;6.4;;
17949;SDS011;9100;48.700;9.316;2022-10-01T04:02:18;6.5;;;5.9;;
17949;SDS011;9100;48.700;9.316;2022-10-01T04:02:24;6.5;;;5.9;;
17949;SDS011;9100;48.700;9.316;2022-10-01T04:03:24;6.5;;;5.9;;
17949;SDS011;9100;48.700;9.316;2022-10-01T04:04:24;6.5;;;5.9;;
17949;SDS011;9100;48.700;9.316;2022-10-01T04:05:24;6.5;;;5.9;;
17949;SDS011;9100;48.700;9.316;2022-10-01T04:06:24;6.5;;;5.9;;
17949;SDS011;9100;48.700;9.316;2022-10-01T04:07:18;6.4;;;5.8;;
17949;SDS011;9100;48.700;9.316;2022-10-01T04:07:24;6.4;;;5.8;;
17949;SDS011;9100;48.700;9.316;2022-10-01T04:08:24;6.4;;;5.8;;
17949;SDS011;9100;48.700;9.316;2022-10-01T04:09:24;6.4;;;5.8;;
17949;SDS011;9100;48.700;9.316;2022-10-01T04:10:24;6.4;;;5.8;;
17949;SDS011;9100;48.700;9.316;2022-10-01T04:11:24;6.4;;;5.8;;
17949;SDS011;9100;48.700;9.316;2022-10-01T04:12:18;6.3;;;5.8;;
17949;SDS011;9100;48.700;9.316;2022-10-01T04:12:24;6.3;;;5.8;;
17949;SDS011;9100;48.700;9.316;2022-10-01T04:13:24;6.3;;;5.8;;
17949;SDS011;9100;48.700;9.316;2022-10-01T04:14:24;6.3;;;5.8;;
17949;SDS011;9100;48.700;9.316;2022-10-01T04:15:24;6.3;;;5.8;;
17949;SDS011;9100;48.700;9.316;2022-10-01T04:16:24;6.3;;;5.8;;
17949;SDS011;9100;48.700;9.316;2022-10-01T04:17:18;7.1;;;5.7;;
17949;SDS011;9100;48.700;9.316;2022-10-01T04:17:24;7.1;;;5.7;;
17949;SDS011;9100;48.700;9.316;2022-10-01T04:18:24;7.1;;;5.7;;
17949;SDS011;9100;48.700;9.316;2022-10-01T04:19:24;7.1;;;5.7;;
17949;SDS011;9100;48.700;9.316;2022-10-01T04:20:24;7.1;;;5.7;;
17949;SDS011;9100;48.700;9.316;2022-10-01T04:21:24;7.1;;;5.7;;
17949;SDS011;9100;48.700;9.316;2022-10-01T04:22:18;7.3;;;5.9;;
17949;SDS011;9100;48.700;9.316;2022-10-01T04:22:24;7.3;;;5.9;;
17949;SDS011;9100;48.700;9.316;2022-10-01T04:23:24;7.3;;;5.9;;
17949;SDS011;9100;48.700;9.316;2022-10-01T04:24:24;7.3;;;5.9;;
17949;SDS011;9100;48.700;9.316;2022-10-01T04:25:24;7.3;;;5.9;;
17949;SDS011;9100;48.700;9.316;2022-10-01T04:26:24;7.3;;;5.9;;
17949;SDS011;9100;48.700;9.316;2022-10-01T04:27:18;6.2;;;5.5;;
17949;SDS011;9100;48.700;9.316;2022-10-01T04:27:24;6.2;;;5.5;;
17949;SDS011;9100;48.700;9.316;2022-10-01T04:28:24;6.2;;;5.5;;
17949;SDS011;9100;48.700;9.316;2022-10-01T04:29:24;6.2;;;5.5;;
17949;SDS011;9100;48.700;9.316;2022-10-01T04:30:24;6.2;;;5.5;;
17949;SDS011;9100;48.700;9.316;2022-10-01T04:31:24;6.2;;;5.5;;
17949;SDS011;9100;48.700;9.316;2022-10-01T04:32:18;7;;;6.1;;
17949;SDS011;9100;48.700;9.316;2022-10-01T04:32:24;7;;;6.1;;
17949;SDS011;9100;48.700;9.316;2022-10-01T04:33:24;7;;;6.1;;
17949;SDS011;9100;48.700;9.316;2022-10-01T04:34:24;7;;;6.1;;
17949;SDS011;9100;48.700;9.316;2022-10-01T04:35:24;7;;;6.1;;
17949;SDS011;9100;48.700;9.316;2022-10-01T04:36:24;7;;;6.1;;
17949;SDS011;9100;48.700;9.316;2022-10-01T04:37:18;7;;;6.3;;
17949;SDS011;9100;48.700;9.316;2022-10-01T04:37:24;7;;;6.3;;
17949;SDS011;9100;48.700;9.316;2022-10-01T04:38:24;7;;;6.3;;
17949;SDS011;9100;48.700;9.316;2022-10-01T04:39:24;7;;;6.3;;
17949;SDS011;9100;48.700;9.316;2022-10-01T04:40:24;7;;;6.3;;
17949;SDS011;9100;48.700;9.316;2022-10-01T04:41:24;7;;;6.3;;
17949;SDS011;9100;48.700;9.316;2022-10-01T04:42:18;6.6;;;6;;
17949;SDS011;9100;48.700;9.316;2022-10-01T04:42:24;6.6;;;6;;
17949;SDS011;9100;48.700;9.316;2022-10-01T04:43:24;6.6;;;6;;
17949;SDS011;9100;48.700;9.316;2022-10-01T04:44:24;6.6;;;6;;
17949;SDS011;9100;48.700;9.316;2022-10-01T04:45:24;6.6;;;6;;
17949;SDS011;9100;48.700;9.316;2022-10-01T04:46:24;6.6;;;6;;
17949;SDS011;9100;48.700;9.316;2022-10-01T04:47:18;6.3;;;5.8;;
17949;SDS011;9100;48.700;9.316;2022-10-01T04:47:24;6.3;;;5.8;;
17949;SDS011;9100;48.700;9.316;2022-10-01T04:48:24;6.3;;;5.8;;
17949;SDS011;9100;48.700;9.316;2022-10-01T04:49:24;6.3;;;5.8;;
17949;SDS011;9100;48.700;9.316;2022-10-01T04:50:25;6.3;;;5.8;;
17949;SDS011;9100;48.700;9.316;2022-10-01T04:51:24;6.3;;;5.8;;
17949;SDS011;9100;48.700;9.316;2022-10-01T04:52:18;7.4;;;5.5;;
17949;SDS011;9100;48.700;9.316;2022-10-01T04:52:24;7.4;;;5.5;;
17949;SDS011;9100;48.700;9.316;2022-10-01T04:53:24;7.4;;;5.5;;
17949;SDS011;9100;48.700;9.316;2022-10-01T04:54:24;7.4;;;5.5;;
17949;SDS011;9100;48.700;9.316;2022-10-01T04:55:24;7.4;;;5.5;;
17949;SDS011;9100;48.700;9.316;2022-10-01T04:56:24;7.4;;;5.5;;
17949;SDS011;9100;48.700;9.316;2022-10-01T04:57:18;5.1;;;4.7;;
17949;SDS011;9100;48.700;9.316;2022-10-01T04:57:24;5.1;;;4.7;;
17949;SDS011;9100;48.700;9.316;2022-10-01T04:58:24;5.1;;;4.7;;
17949;SDS011;9100;48.700;9.316;2022-10-01T04:59:24;5.1;;;4.7;;
17949;SDS011;9100;48.700;9.316;2022-10-01T05:00:24;5.1;;;4.7;;
17949;SDS011;9100;48.700;9.316;2022-10-01T05:01:24;5.1;;;4.7;;
17949;SDS011;9100;48.700;9.316;2022-10-01T05:02:18;5.7;;;5.1;;
17949;SDS011;9100;48.700;9.316;2022-10-01T05:02:24;5.7;;;5.1;;
17949;SDS011;9100;48.700;9.316;2022-10-01T05:03:24;5.7;;;5.1;;
17949;SDS011;9100;48.700;9.316;2022-10-01T05:04:24;5.7;;;5.1;;
17949;SDS011;9100;48.700;9.316;2022-10-01T05:05:24;5.7;;;5.1;;
17949;SDS011;9100;48.700;9.316;2022-10-01T05:06:24;5.7;;;5.1;;
17949;SDS011;9100;48.700;9.316;2022-10-01T05:07:18;4.9;;;4.5;;
17949;SDS011;9100;48.700;9.316;2022-10-01T05:07:24;4.9;;;4.5;;
17949;SDS011;9100;48.700;9.316;2022-10-01T05:08:24;4.9;;;4.5;;
17949;SDS011;9100;48.700;9.316;2022-10-01T05:09:24;4.9;;;4.5;;
17949;SDS011;9100;48.700;9.316;2022-10-01T05:10:24;4.9;;;4.5;;
17949;SDS011;9100;48.700;9.316;2022-10-01T05:11:24;4.9;;;4.5;;
17949;SDS011;9100;48.700;9.316;2022-10-01T05:12:18;5.1;;;4.7;;
17949;SDS011;9100;48.700;9.316;2022-10-01T05:12:24;5.1;;;4.7;;
17949;SDS011;9100;48.700;9.316;2022-10-01T05:13:24;5.1;;;4.7;;
17949;SDS011;9100;48.700;9.316;2022-10-01T05:14:24;5.1;;;4.7;;
17949;SDS011;9100;48.700;9.316;2022-10-01T05:15:24;5.1;;;4.7;;
17949;SDS011;9100;48.700;9.316;2022-10-01T05:16:24;5.1;;;4.7;;
17949;SDS011;9100;48.700;9.316;2022-10-01T05:17:18;4.6;;;4.2;;
17949;SDS011;9100;48.700;9.316;2022-10-01T05:17:24;4.6;;;4.2;;